sensor_id;sensor_type;location;lat;lon;timestamp;P1;durP1;ratioP1;P2;durP2;ratioP2
4810;SDS011;2419;51.276;6.472;2024-02-26T00:02:24;3.03;;;1.40;;
4810;SDS011;2419;51.276;6.472;2024-02-26T00:04:52;2.73;;;1.70;;
4810;SDS011;2419;51.276;6.472;2024-02-26T00:07:20;5.37;;;1.40;;
4810;SDS011;2419;51.276;6.472;2024-02-26T00:09:48;2.63;;;1.30;;
4810;SDS011;2419;51.276;6.472;2024-02-26T00:12:16;2.07;;;1.40;;
4810;SDS011;2419;51.276;6.472;2024-02-26T00:14:44;2.30;;;1.30;;
4810;SDS011;2419;51.276;6.472;2024-02-26T00:17:14;3.73;;;1.63;;
4810;SDS011;2419;51.276;6.472;2024-02-26T00:19:43;3.57;;;1.77;;
4810;SDS011;2419;51.276;6.472;2024-02-26T00:22:11;1.67;;;1.57;;
4810;SDS011;2419;51.276;6.472;2024-02-26T00:24:39;1.40;;;1.20;;
4810;SDS011;2419;51.276;6.472;2024-02-26T00:27:07;2.70;;;1.33;;
4810;SDS011;2419;51.276;6.472;2024-02-26T00:29:36;1.87;;;1.50;;
4810;SDS011;2419;51.276;6.472;2024-02-26T00:32:04;1.43;;;1.13;;
4810;SDS011;2419;51.276;6.472;2024-02-26T00:34:34;1.57;;;1.33;;
4810;SDS011;2419;51.276;6.472;2024-02-26T00:37:02;1.93;;;1.70;;
4810;SDS011;2419;51.276;6.472;2024-02-26T00:39:30;2.10;;;1.33;;
4810;SDS011;2419;51.276;6.472;2024-02-26T00:41:58;3.97;;;1.90;;
4810;SDS011;2419;51.276;6.472;2024-02-26T00:44:26;2.10;;;1.67;;
4810;SDS011;2419;51.276;6.472;2024-02-26T00:46:55;2.00;;;1.53;;
4810;SDS011;2419;51.276;6.472;2024-02-26T00:49:23;2.27;;;1.50;;
4810;SDS011;2419;51.276;6.472;2024-02-26T00:51:52;2.30;;;1.33;;
4810;SDS011;2419;51.276;6.472;2024-02-26T00:54:20;3.13;;;1.60;;
4810;SDS011;2419;51.276;6.472;2024-02-26T00:56:49;2.30;;;1.50;;
4810;SDS011;2419;51.276;6.472;2024-02-26T00:59:17;1.57;;;1.30;;
4810;SDS011;2419;51.276;6.472;2024-02-26T01:01:45;6.13;;;1.90;;
4810;SDS011;2419;51.276;6.472;2024-02-26T01:04:13;7.53;;;1.70;;
4810;SDS011;2419;51.276;6.472;2024-02-26T01:06:41;1.77;;;1.50;;
4810;SDS011;2419;51.276;6.472;2024-02-26T01:09:11;4.73;;;1.60;;
4810;SDS011;2419;51.276;6.472;2024-02-26T01:11:39;3.63;;;1.40;;
4810;SDS011;2419;51.276;6.472;2024-02-26T01:14:07;1.97;;;1.60;;
4810;SDS011;2419;51.276;6.472;2024-02-26T01:16:35;2.47;;;1.67;;
4810;SDS011;2419;51.276;6.472;2024-02-26T01:19:03;5.10;;;2.03;;
4810;SDS011;2419;51.276;6.472;2024-02-26T01:21:31;1.63;;;1.53;;
4810;SDS011;2419;51.276;6.472;2024-02-26T01:23:59;3.27;;;1.73;;
4810;SDS011;2419;51.276;6.472;2024-02-26T01:26:29;4.37;;;1.70;;
4810;SDS011;2419;51.276;6.472;2024-02-26T01:28:57;2.03;;;1.40;;
4810;SDS011;2419;51.276;6.472;2024-02-26T01:31:25;2.40;;;1.60;;
4810;SDS011;2419;51.276;6.472;2024-02-26T01:33:53;3.13;;;1.63;;
4810;SDS011;2419;51.276;6.472;2024-02-26T01:36:21;3.00;;;1.70;;
4810;SDS011;2419;51.276;6.472;2024-02-26T01:38:49;2.90;;;1.87;;
4810;SDS011;2419;51.276;6.472;2024-02-26T01:41:17;2.03;;;1.70;;
4810;SDS011;2419;51.276;6.472;2024-02-26T01:43:47;7.27;;;2.40;;
4810;SDS011;2419;51.276;6.472;2024-02-26T01:46:15;3.73;;;2.10;;
4810;SDS011;2419;51.276;6.472;2024-02-26T01:48:44;3.53;;;1.97;;
4810;SDS011;2419;51.276;6.472;2024-02-26T01:51:16;2.40;;;1.67;;
4810;SDS011;2419;51.276;6.472;2024-02-26T01:53:45;5.73;;;1.80;;
4810;SDS011;2419;51.276;6.472;2024-02-26T01:56:13;4.10;;;2.37;;
4810;SDS011;2419;51.276;6.472;2024-02-26T01:58:44;2.17;;;1.77;;
4810;SDS011;2419;51.276;6.472;2024-02-26T02:01:15;4.30;;;2.00;;
4810;SDS011;2419;51.276;6.472;2024-02-26T02:03:45;1.60;;;1.50;;
4810;SDS011;2419;51.276;6.472;2024-02-26T02:06:13;2.53;;;1.73;;
4810;SDS011;2419;51.276;6.472;2024-02-26T02:08:42;4.60;;;2.00;;
4810;SDS011;2419;51.276;6.472;2024-02-26T02:11:11;2.23;;;1.60;;
4810;SDS011;2419;51.276;6.472;2024-02-26T02:13:41;5.90;;;2.20;;
4810;SDS011;2419;51.276;6.472;2024-02-26T02:16:10;3.10;;;1.90;;
4810;SDS011;2419;51.276;6.472;2024-02-26T02:18:38;3.20;;;1.90;;
4810;SDS011;2419;51.276;6.472;2024-02-26T02:21:08;2.50;;;1.80;;
4810;SDS011;2419;51.276;6.472;2024-02-26T02:23:36;3.60;;;2.13;;
4810;SDS011;2419;51.276;6.472;2024-02-26T02:26:05;5.90;;;2.17;;
4810;SDS011;2419;51.276;6.472;2024-02-26T02:28:33;2.17;;;1.70;;
4810;SDS011;2419;51.276;6.472;2024-02-26T02:31:01;2.40;;;2.13;;
4810;SDS011;2419;51.276;6.472;2024-02-26T02:33:30;4.53;;;2.20;;
4810;SDS011;2419;51.276;6.472;2024-02-26T02:35:58;1.93;;;1.70;;
4810;SDS011;2419;51.276;6.472;2024-02-26T02:38:28;3.00;;;1.70;;
4810;SDS011;2419;51.276;6.472;2024-02-26T02:40:56;2.73;;;2.03;;
4810;SDS011;2419;51.276;6.472;2024-02-26T02:43:24;3.43;;;1.80;;
4810;SDS011;2419;51.276;6.472;2024-02-26T02:45:53;2.93;;;1.80;;
4810;SDS011;2419;51.276;6.472;2024-02-26T02:48:21;3.17;;;1.93;;
4810;SDS011;2419;51.276;6.472;2024-02-26T02:50:49;2.23;;;1.77;;
4810;SDS011;2419;51.276;6.472;2024-02-26T02:53:17;2.60;;;1.90;;
4810;SDS011;2419;51.276;6.472;2024-02-26T02:55:46;2.90;;;1.60;;
4810;SDS011;2419;51.276;6.472;2024-02-26T02:58:15;1.90;;;1.67;;
4810;SDS011;2419;51.276;6.472;2024-02-26T03:00:43;5.37;;;2.10;;
4810;SDS011;2419;51.276;6.472;2024-02-26T03:03:11;1.53;;;1.43;;
4810;SDS011;2419;51.276;6.472;2024-02-26T03:05:39;3.47;;;1.63;;
4810;SDS011;2419;51.276;6.472;2024-02-26T03:08:07;1.80;;;1.53;;
4810;SDS011;2419;51.276;6.472;2024-02-26T03:10:35;2.70;;;1.90;;
4810;SDS011;2419;51.276;6.472;2024-02-26T03:13:05;2.37;;;1.63;;
4810;SDS011;2419;51.276;6.472;2024-02-26T03:15:33;2.63;;;1.70;;
4810;SDS011;2419;51.276;6.472;2024-02-26T03:18:01;4.23;;;2.03;;
4810;SDS011;2419;51.276;6.472;2024-02-26T03:20:30;2.83;;;2.00;;
4810;SDS011;2419;51.276;6.472;2024-02-26T03:22:58;2.10;;;1.40;;
4810;SDS011;2419;51.276;6.472;2024-02-26T03:25:26;6.20;;;1.53;;
4810;SDS011;2419;51.276;6.472;2024-02-26T03:27:54;4.67;;;1.27;;
4810;SDS011;2419;51.276;6.472;2024-02-26T03:30:23;3.30;;;1.33;;
4810;SDS011;2419;51.276;6.472;2024-02-26T03:32:51;3.10;;;1.63;;
4810;SDS011;2419;51.276;6.472;2024-02-26T03:35:20;1.40;;;1.30;;
4810;SDS011;2419;51.276;6.472;2024-02-26T03:37:48;3.10;;;1.60;;
4810;SDS011;2419;51.276;6.472;2024-02-26T03:40:18;2.40;;;1.37;;
4810;SDS011;2419;51.276;6.472;2024-02-26T03:42:46;4.43;;;1.20;;
4810;SDS011;2419;51.276;6.472;2024-02-26T03:45:14;1.53;;;1.40;;
4810;SDS011;2419;51.276;6.472;2024-02-26T03:47:44;1.57;;;1.30;;
4810;SDS011;2419;51.276;6.472;2024-02-26T03:50:12;4.73;;;1.90;;
4810;SDS011;2419;51.276;6.472;2024-02-26T03:52:40;3.30;;;2.03;;
4810;SDS011;2419;51.276;6.472;2024-02-26T03:55:09;4.07;;;2.60;;
4810;SDS011;2419;51.276;6.472;2024-02-26T03:57:37;6.60;;;2.43;;
4810;SDS011;2419;51.276;6.472;2024-02-26T04:00:05;3.00;;;1.90;;
4810;SDS011;2419;51.276;6.472;2024-02-26T04:02:37;3.37;;;1.97;;
4810;SDS011;2419;51.276;6.472;2024-02-26T04:05:10;5.30;;;2.27;;
4810;SDS011;2419;51.276;6.472;2024-02-26T04:07:38;5.90;;;2.70;;
4810;SDS011;2419;51.276;6.472;2024-02-26T04:10:08;5.20;;;2.93;;
4810;SDS011;2419;51.276;6.472;2024-02-26T04:12:37;4.00;;;2.80;;
4810;SDS011;2419;51.276;6.472;2024-02-26T04:15:07;2.67;;;2.10;;
4810;SDS011;2419;51.276;6.472;2024-02-26T04:17:36;4.23;;;2.37;;
4810;SDS011;2419;51.276;6.472;2024-02-26T04:20:05;7.60;;;3.20;;
4810;SDS011;2419;51.276;6.472;2024-02-26T04:22:35;4.20;;;2.57;;
4810;SDS011;2419;51.276;6.472;2024-02-26T04:25:04;8.70;;;3.40;;
4810;SDS011;2419;51.276;6.472;2024-02-26T04:27:32;8.53;;;3.50;;
4810;SDS011;2419;51.276;6.472;2024-02-26T04:30:00;7.30;;;3.53;;
4810;SDS011;2419;51.276;6.472;2024-02-26T04:32:29;7.03;;;3.23;;
4810;SDS011;2419;51.276;6.472;2024-02-26T04:34:57;6.13;;;3.20;;
4810;SDS011;2419;51.276;6.472;2024-02-26T04:37:25;2.30;;;2.10;;
4810;SDS011;2419;51.276;6.472;2024-02-26T04:39:59;6.90;;;2.90;;
4810;SDS011;2419;51.276;6.472;2024-02-26T04:42:27;8.50;;;3.60;;
4810;SDS011;2419;51.276;6.472;2024-02-26T04:44:55;5.80;;;3.07;;
4810;SDS011;2419;51.276;6.472;2024-02-26T04:47:23;9.20;;;3.50;;
4810;SDS011;2419;51.276;6.472;2024-02-26T04:49:51;4.03;;;2.97;;
4810;SDS011;2419;51.276;6.472;2024-02-26T04:52:21;5.30;;;2.70;;
4810;SDS011;2419;51.276;6.472;2024-02-26T04:54:49;7.67;;;3.83;;
4810;SDS011;2419;51.276;6.472;2024-02-26T04:57:18;8.73;;;3.80;;
4810;SDS011;2419;51.276;6.472;2024-02-26T04:59:46;8.97;;;3.53;;
4810;SDS011;2419;51.276;6.472;2024-02-26T05:02:14;2.97;;;2.30;;
4810;SDS011;2419;51.276;6.472;2024-02-26T05:04:43;3.47;;;2.60;;
4810;SDS011;2419;51.276;6.472;2024-02-26T05:07:11;3.90;;;2.90;;
4810;SDS011;2419;51.276;6.472;2024-02-26T05:09:39;5.17;;;2.43;;
4810;SDS011;2419;51.276;6.472;2024-02-26T05:12:08;2.50;;;2.30;;
4810;SDS011;2419;51.276;6.472;2024-02-26T05:14:38;6.53;;;3.10;;
4810;SDS011;2419;51.276;6.472;2024-02-26T05:17:06;7.00;;;3.03;;
4810;SDS011;2419;51.276;6.472;2024-02-26T05:19:35;11.37;;;4.60;;
4810;SDS011;2419;51.276;6.472;2024-02-26T05:22:03;18.10;;;6.13;;
4810;SDS011;2419;51.276;6.472;2024-02-26T05:24:31;21.07;;;5.77;;
4810;SDS011;2419;51.276;6.472;2024-02-26T05:26:59;7.87;;;3.30;;
4810;SDS011;2419;51.276;6.472;2024-02-26T05:29:28;9.30;;;3.20;;
4810;SDS011;2419;51.276;6.472;2024-02-26T05:31:57;6.13;;;2.80;;
4810;SDS011;2419;51.276;6.472;2024-02-26T05:34:25;8.73;;;3.50;;
4810;SDS011;2419;51.276;6.472;2024-02-26T05:36:53;10.47;;;3.60;;
4810;SDS011;2419;51.276;6.472;2024-02-26T05:39:21;7.83;;;3.43;;
4810;SDS011;2419;51.276;6.472;2024-02-26T05:41:49;11.47;;;3.53;;
4810;SDS011;2419;51.276;6.472;2024-02-26T05:44:18;3.73;;;2.70;;
4810;SDS011;2419;51.276;6.472;2024-02-26T05:46:46;3.73;;;3.00;;
4810;SDS011;2419;51.276;6.472;2024-02-26T05:49:15;5.37;;;3.27;;
4810;SDS011;2419;51.276;6.472;2024-02-26T05:51:43;3.73;;;2.90;;
4810;SDS011;2419;51.276;6.472;2024-02-26T05:54:11;4.10;;;3.23;;
4810;SDS011;2419;51.276;6.472;2024-02-26T05:56:40;7.10;;;3.30;;
4810;SDS011;2419;51.276;6.472;2024-02-26T05:59:09;10.13;;;3.20;;
4810;SDS011;2419;51.276;6.472;2024-02-26T06:01:37;6.90;;;3.37;;
4810;SDS011;2419;51.276;6.472;2024-02-26T06:04:05;5.13;;;3.60;;
4810;SDS011;2419;51.276;6.472;2024-02-26T06:06:34;5.47;;;3.63;;
4810;SDS011;2419;51.276;6.472;2024-02-26T06:09:06;7.10;;;3.50;;
4810;SDS011;2419;51.276;6.472;2024-02-26T06:11:34;3.20;;;2.70;;
4810;SDS011;2419;51.276;6.472;2024-02-26T06:14:02;3.73;;;3.00;;
4810;SDS011;2419;51.276;6.472;2024-02-26T06:16:30;4.47;;;3.10;;
4810;SDS011;2419;51.276;6.472;2024-02-26T06:18:58;3.50;;;2.60;;
4810;SDS011;2419;51.276;6.472;2024-02-26T06:21:27;4.37;;;2.70;;
4810;SDS011;2419;51.276;6.472;2024-02-26T06:23:56;4.27;;;2.40;;
4810;SDS011;2419;51.276;6.472;2024-02-26T06:26:25;3.70;;;2.50;;
4810;SDS011;2419;51.276;6.472;2024-02-26T06:28:55;2.70;;;2.50;;
4810;SDS011;2419;51.276;6.472;2024-02-26T06:31:23;2.87;;;2.60;;
4810;SDS011;2419;51.276;6.472;2024-02-26T06:33:53;3.13;;;2.50;;
4810;SDS011;2419;51.276;6.472;2024-02-26T06:36:22;4.40;;;2.60;;
4810;SDS011;2419;51.276;6.472;2024-02-26T06:38:50;4.60;;;2.50;;
4810;SDS011;2419;51.276;6.472;2024-02-26T06:41:21;3.10;;;2.13;;
4810;SDS011;2419;51.276;6.472;2024-02-26T06:43:53;2.90;;;2.47;;
4810;SDS011;2419;51.276;6.472;2024-02-26T06:46:21;2.97;;;2.67;;
4810;SDS011;2419;51.276;6.472;2024-02-26T06:48:50;6.50;;;2.50;;
4810;SDS011;2419;51.276;6.472;2024-02-26T06:51:21;3.17;;;2.87;;
4810;SDS011;2419;51.276;6.472;2024-02-26T06:53:50;4.67;;;2.73;;
4810;SDS011;2419;51.276;6.472;2024-02-26T06:56:18;3.67;;;2.40;;
4810;SDS011;2419;51.276;6.472;2024-02-26T06:58:47;4.50;;;2.60;;
4810;SDS011;2419;51.276;6.472;2024-02-26T07:01:15;3.40;;;2.80;;
4810;SDS011;2419;51.276;6.472;2024-02-26T07:03:43;6.57;;;2.80;;
4810;SDS011;2419;51.276;6.472;2024-02-26T07:06:12;5.70;;;3.50;;
4810;SDS011;2419;51.276;6.472;2024-02-26T07:08:40;5.53;;;2.67;;
4810;SDS011;2419;51.276;6.472;2024-02-26T07:11:08;4.93;;;3.17;;
4810;SDS011;2419;51.276;6.472;2024-02-26T07:13:37;5.57;;;3.37;;
4810;SDS011;2419;51.276;6.472;2024-02-26T07:16:08;7.23;;;3.43;;
4810;SDS011;2419;51.276;6.472;2024-02-26T07:18:37;5.43;;;3.57;;
4810;SDS011;2419;51.276;6.472;2024-02-26T07:21:06;4.43;;;3.43;;
4810;SDS011;2419;51.276;6.472;2024-02-26T07:23:34;9.27;;;3.67;;
4810;SDS011;2419;51.276;6.472;2024-02-26T07:26:03;4.87;;;3.43;;
4810;SDS011;2419;51.276;6.472;2024-02-26T07:28:31;4.00;;;3.40;;
4810;SDS011;2419;51.276;6.472;2024-02-26T07:30:59;3.43;;;2.90;;
4810;SDS011;2419;51.276;6.472;2024-02-26T07:33:28;3.80;;;3.00;;
4810;SDS011;2419;51.276;6.472;2024-02-26T07:35:56;3.93;;;3.13;;
4810;SDS011;2419;51.276;6.472;2024-02-26T07:38:25;4.00;;;2.80;;
4810;SDS011;2419;51.276;6.472;2024-02-26T07:41:07;4.03;;;2.73;;
4810;SDS011;2419;51.276;6.472;2024-02-26T07:43:35;7.43;;;2.83;;
4810;SDS011;2419;51.276;6.472;2024-02-26T07:46:04;5.77;;;2.60;;
4810;SDS011;2419;51.276;6.472;2024-02-26T07:48:33;6.37;;;2.83;;
4810;SDS011;2419;51.276;6.472;2024-02-26T07:51:01;3.43;;;2.53;;
4810;SDS011;2419;51.276;6.472;2024-02-26T07:53:30;6.40;;;2.43;;
4810;SDS011;2419;51.276;6.472;2024-02-26T07:55:58;3.40;;;3.00;;
4810;SDS011;2419;51.276;6.472;2024-02-26T07:58:27;5.23;;;3.33;;
4810;SDS011;2419;51.276;6.472;2024-02-26T08:00:55;5.37;;;2.80;;
4810;SDS011;2419;51.276;6.472;2024-02-26T08:03:23;3.50;;;2.70;;
4810;SDS011;2419;51.276;6.472;2024-02-26T08:05:54;3.50;;;2.53;;
4810;SDS011;2419;51.276;6.472;2024-02-26T08:08:22;5.97;;;2.77;;
4810;SDS011;2419;51.276;6.472;2024-02-26T08:10:50;3.97;;;3.17;;
4810;SDS011;2419;51.276;6.472;2024-02-26T08:13:18;4.57;;;3.33;;
4810;SDS011;2419;51.276;6.472;2024-02-26T08:15:46;6.23;;;3.27;;
4810;SDS011;2419;51.276;6.472;2024-02-26T08:18:14;7.67;;;3.50;;
4810;SDS011;2419;51.276;6.472;2024-02-26T08:20:43;6.63;;;3.37;;
4810;SDS011;2419;51.276;6.472;2024-02-26T08:23:13;3.50;;;3.03;;
4810;SDS011;2419;51.276;6.472;2024-02-26T08:25:41;5.87;;;2.87;;
4810;SDS011;2419;51.276;6.472;2024-02-26T08:28:12;6.83;;;3.20;;
4810;SDS011;2419;51.276;6.472;2024-02-26T08:30:41;4.70;;;2.93;;
4810;SDS011;2419;51.276;6.472;2024-02-26T08:33:09;4.10;;;2.47;;
4810;SDS011;2419;51.276;6.472;2024-02-26T08:35:38;4.30;;;2.60;;
4810;SDS011;2419;51.276;6.472;2024-02-26T08:38:06;4.37;;;2.87;;
4810;SDS011;2419;51.276;6.472;2024-02-26T08:40:35;5.93;;;3.20;;
4810;SDS011;2419;51.276;6.472;2024-02-26T08:43:04;2.40;;;2.10;;
4810;SDS011;2419;51.276;6.472;2024-02-26T08:45:32;4.60;;;2.87;;
4810;SDS011;2419;51.276;6.472;2024-02-26T08:48:00;4.87;;;3.10;;
4810;SDS011;2419;51.276;6.472;2024-02-26T08:50:28;3.43;;;3.13;;
4810;SDS011;2419;51.276;6.472;2024-02-26T08:52:57;4.90;;;3.07;;
4810;SDS011;2419;51.276;6.472;2024-02-26T08:55:30;7.70;;;3.37;;
4810;SDS011;2419;51.276;6.472;2024-02-26T08:57:59;5.97;;;3.40;;
4810;SDS011;2419;51.276;6.472;2024-02-26T09:00:27;4.00;;;3.30;;
4810;SDS011;2419;51.276;6.472;2024-02-26T09:02:55;4.90;;;4.30;;
4810;SDS011;2419;51.276;6.472;2024-02-26T09:05:25;4.10;;;3.60;;
4810;SDS011;2419;51.276;6.472;2024-02-26T09:07:53;5.97;;;4.80;;
4810;SDS011;2419;51.276;6.472;2024-02-26T09:10:21;8.53;;;4.53;;
4810;SDS011;2419;51.276;6.472;2024-02-26T09:12:49;5.13;;;3.83;;
4810;SDS011;2419;51.276;6.472;2024-02-26T09:15:19;8.83;;;5.23;;
4810;SDS011;2419;51.276;6.472;2024-02-26T09:17:47;6.50;;;4.67;;
4810;SDS011;2419;51.276;6.472;2024-02-26T09:20:16;5.17;;;3.90;;
4810;SDS011;2419;51.276;6.472;2024-02-26T09:22:46;5.80;;;4.50;;
4810;SDS011;2419;51.276;6.472;2024-02-26T09:25:14;4.83;;;3.97;;
4810;SDS011;2419;51.276;6.472;2024-02-26T09:27:42;5.23;;;3.87;;
4810;SDS011;2419;51.276;6.472;2024-02-26T09:30:13;6.60;;;4.00;;
4810;SDS011;2419;51.276;6.472;2024-02-26T09:32:45;11.23;;;3.70;;
4810;SDS011;2419;51.276;6.472;2024-02-26T09:35:14;7.97;;;3.87;;
4810;SDS011;2419;51.276;6.472;2024-02-26T09:37:42;5.30;;;4.10;;
4810;SDS011;2419;51.276;6.472;2024-02-26T09:40:11;8.23;;;3.83;;
4810;SDS011;2419;51.276;6.472;2024-02-26T09:42:41;7.37;;;4.63;;
4810;SDS011;2419;51.276;6.472;2024-02-26T09:45:12;9.63;;;4.00;;
4810;SDS011;2419;51.276;6.472;2024-02-26T09:47:47;7.47;;;4.67;;
4810;SDS011;2419;51.276;6.472;2024-02-26T09:50:16;6.37;;;5.13;;
4810;SDS011;2419;51.276;6.472;2024-02-26T09:52:49;8.00;;;4.53;;
4810;SDS011;2419;51.276;6.472;2024-02-26T09:55:18;4.83;;;4.03;;
4810;SDS011;2419;51.276;6.472;2024-02-26T09:57:46;6.33;;;3.93;;
4810;SDS011;2419;51.276;6.472;2024-02-26T10:00:17;10.40;;;4.23;;
4810;SDS011;2419;51.276;6.472;2024-02-26T10:02:48;7.27;;;4.37;;
4810;SDS011;2419;51.276;6.472;2024-02-26T10:05:16;8.70;;;3.30;;
4810;SDS011;2419;51.276;6.472;2024-02-26T10:07:45;3.83;;;3.30;;
4810;SDS011;2419;51.276;6.472;2024-02-26T10:10:14;5.73;;;3.63;;
4810;SDS011;2419;51.276;6.472;2024-02-26T10:12:44;7.93;;;4.37;;
4810;SDS011;2419;51.276;6.472;2024-02-26T10:15:12;6.13;;;3.33;;
4810;SDS011;2419;51.276;6.472;2024-02-26T10:17:40;4.97;;;3.80;;
4810;SDS011;2419;51.276;6.472;2024-02-26T10:20:14;7.73;;;4.10;;
4810;SDS011;2419;51.276;6.472;2024-02-26T10:22:44;6.80;;;3.73;;
4810;SDS011;2419;51.276;6.472;2024-02-26T10:25:12;5.03;;;3.57;;
4810;SDS011;2419;51.276;6.472;2024-02-26T10:27:41;6.57;;;4.53;;
4810;SDS011;2419;51.276;6.472;2024-02-26T10:30:16;3.90;;;3.50;;
4810;SDS011;2419;51.276;6.472;2024-02-26T10:32:46;5.30;;;3.80;;
4810;SDS011;2419;51.276;6.472;2024-02-26T10:35:17;4.60;;;3.40;;
4810;SDS011;2419;51.276;6.472;2024-02-26T10:37:47;7.30;;;3.27;;
4810;SDS011;2419;51.276;6.472;2024-02-26T10:40:16;7.33;;;3.53;;
4810;SDS011;2419;51.276;6.472;2024-02-26T10:42:44;3.43;;;3.10;;
4810;SDS011;2419;51.276;6.472;2024-02-26T10:45:12;5.73;;;3.80;;
4810;SDS011;2419;51.276;6.472;2024-02-26T10:47:41;6.73;;;3.70;;
4810;SDS011;2419;51.276;6.472;2024-02-26T10:50:09;4.03;;;3.20;;
4810;SDS011;2419;51.276;6.472;2024-02-26T10:52:41;4.43;;;3.37;;
4810;SDS011;2419;51.276;6.472;2024-02-26T10:55:12;5.90;;;4.20;;
4810;SDS011;2419;51.276;6.472;2024-02-26T10:57:45;8.30;;;3.80;;
4810;SDS011;2419;51.276;6.472;2024-02-26T11:00:15;4.63;;;4.07;;
4810;SDS011;2419;51.276;6.472;2024-02-26T11:02:44;5.10;;;3.57;;
4810;SDS011;2419;51.276;6.472;2024-02-26T11:05:13;7.50;;;3.50;;
4810;SDS011;2419;51.276;6.472;2024-02-26T11:07:44;8.00;;;4.70;;
4810;SDS011;2419;51.276;6.472;2024-02-26T11:10:13;4.63;;;4.03;;
4810;SDS011;2419;51.276;6.472;2024-02-26T11:12:44;6.63;;;3.50;;
4810;SDS011;2419;51.276;6.472;2024-02-26T11:15:13;7.67;;;3.87;;
4810;SDS011;2419;51.276;6.472;2024-02-26T11:17:42;6.20;;;4.57;;
4810;SDS011;2419;51.276;6.472;2024-02-26T11:20:11;10.67;;;5.03;;
4810;SDS011;2419;51.276;6.472;2024-02-26T11:22:41;6.80;;;4.70;;
4810;SDS011;2419;51.276;6.472;2024-02-26T11:25:10;9.53;;;5.40;;
4810;SDS011;2419;51.276;6.472;2024-02-26T11:27:43;10.43;;;6.13;;
4810;SDS011;2419;51.276;6.472;2024-02-26T11:30:13;9.67;;;5.80;;
4810;SDS011;2419;51.276;6.472;2024-02-26T11:32:44;9.60;;;5.90;;
4810;SDS011;2419;51.276;6.472;2024-02-26T11:35:13;15.37;;;6.80;;
4810;SDS011;2419;51.276;6.472;2024-02-26T11:37:51;12.37;;;7.20;;
4810;SDS011;2419;51.276;6.472;2024-02-26T11:40:22;11.30;;;7.20;;
4810;SDS011;2419;51.276;6.472;2024-02-26T11:42:52;12.13;;;7.57;;
4810;SDS011;2419;51.276;6.472;2024-02-26T11:45:38;8.23;;;6.27;;
4810;SDS011;2419;51.276;6.472;2024-02-26T11:48:17;9.93;;;6.10;;
4810;SDS011;2419;51.276;6.472;2024-02-26T11:50:49;9.53;;;5.73;;
4810;SDS011;2419;51.276;6.472;2024-02-26T11:53:21;11.53;;;6.63;;
4810;SDS011;2419;51.276;6.472;2024-02-26T11:58:57;13.77;;;6.20;;
4810;SDS011;2419;51.276;6.472;2024-02-26T12:01:43;10.80;;;6.23;;
4810;SDS011;2419;51.276;6.472;2024-02-26T12:04:15;11.83;;;6.93;;
4810;SDS011;2419;51.276;6.472;2024-02-26T12:06:45;11.70;;;6.60;;
4810;SDS011;2419;51.276;6.472;2024-02-26T12:09:30;10.50;;;7.20;;
4810;SDS011;2419;51.276;6.472;2024-02-26T12:12:02;14.03;;;6.23;;
4810;SDS011;2419;51.276;6.472;2024-02-26T12:14:32;9.07;;;5.80;;
4810;SDS011;2419;51.276;6.472;2024-02-26T12:17:02;9.70;;;6.23;;
4810;SDS011;2419;51.276;6.472;2024-02-26T12:19:33;8.87;;;6.27;;
4810;SDS011;2419;51.276;6.472;2024-02-26T12:22:06;11.73;;;6.40;;
4810;SDS011;2419;51.276;6.472;2024-02-26T12:24:35;10.50;;;7.07;;
4810;SDS011;2419;51.276;6.472;2024-02-26T12:27:05;11.43;;;7.87;;
4810;SDS011;2419;51.276;6.472;2024-02-26T12:29:33;11.20;;;7.03;;
4810;SDS011;2419;51.276;6.472;2024-02-26T12:32:01;11.43;;;6.30;;
4810;SDS011;2419;51.276;6.472;2024-02-26T12:34:34;9.90;;;6.00;;
4810;SDS011;2419;51.276;6.472;2024-02-26T12:37:03;10.63;;;5.60;;
4810;SDS011;2419;51.276;6.472;2024-02-26T12:39:33;8.77;;;5.00;;
4810;SDS011;2419;51.276;6.472;2024-02-26T12:42:01;12.20;;;8.07;;
4810;SDS011;2419;51.276;6.472;2024-02-26T12:44:32;10.60;;;5.57;;
4810;SDS011;2419;51.276;6.472;2024-02-26T12:47:00;8.70;;;5.90;;
4810;SDS011;2419;51.276;6.472;2024-02-26T12:49:29;9.53;;;6.30;;
4810;SDS011;2419;51.276;6.472;2024-02-26T12:51:58;14.63;;;6.60;;
4810;SDS011;2419;51.276;6.472;2024-02-26T12:54:28;14.20;;;6.80;;
4810;SDS011;2419;51.276;6.472;2024-02-26T12:56:58;8.77;;;5.97;;
4810;SDS011;2419;51.276;6.472;2024-02-26T12:59:28;14.30;;;5.80;;
4810;SDS011;2419;51.276;6.472;2024-02-26T13:01:59;12.70;;;7.20;;
4810;SDS011;2419;51.276;6.472;2024-02-26T13:04:29;9.70;;;6.57;;
4810;SDS011;2419;51.276;6.472;2024-02-26T13:06:58;9.47;;;6.47;;
4810;SDS011;2419;51.276;6.472;2024-02-26T13:09:31;11.17;;;6.07;;
4810;SDS011;2419;51.276;6.472;2024-02-26T13:12:03;7.70;;;5.23;;
4810;SDS011;2419;51.276;6.472;2024-02-26T13:14:32;9.87;;;5.60;;
4810;SDS011;2419;51.276;6.472;2024-02-26T13:17:03;11.30;;;6.30;;
4810;SDS011;2419;51.276;6.472;2024-02-26T13:19:32;6.33;;;5.00;;
4810;SDS011;2419;51.276;6.472;2024-02-26T13:22:03;10.63;;;5.80;;
4810;SDS011;2419;51.276;6.472;2024-02-26T13:24:33;12.27;;;5.70;;
4810;SDS011;2419;51.276;6.472;2024-02-26T13:27:01;9.17;;;5.73;;
4810;SDS011;2419;51.276;6.472;2024-02-26T13:29:32;9.00;;;5.90;;
4810;SDS011;2419;51.276;6.472;2024-02-26T13:32:00;15.47;;;6.80;;
4810;SDS011;2419;51.276;6.472;2024-02-26T13:34:30;7.70;;;5.63;;
4810;SDS011;2419;51.276;6.472;2024-02-26T13:37:00;11.53;;;6.10;;
4810;SDS011;2419;51.276;6.472;2024-02-26T13:39:29;7.57;;;5.37;;
4810;SDS011;2419;51.276;6.472;2024-02-26T13:41:58;9.57;;;6.47;;
4810;SDS011;2419;51.276;6.472;2024-02-26T13:44:26;10.10;;;6.40;;
4810;SDS011;2419;51.276;6.472;2024-02-26T13:46:54;10.97;;;6.50;;
4810;SDS011;2419;51.276;6.472;2024-02-26T13:49:23;10.60;;;5.90;;
4810;SDS011;2419;51.276;6.472;2024-02-26T13:51:51;9.83;;;6.67;;
4810;SDS011;2419;51.276;6.472;2024-02-26T13:54:19;9.80;;;5.77;;
4810;SDS011;2419;51.276;6.472;2024-02-26T13:56:47;9.40;;;5.80;;
4810;SDS011;2419;51.276;6.472;2024-02-26T13:59:16;10.80;;;7.17;;
4810;SDS011;2419;51.276;6.472;2024-02-26T14:01:44;10.10;;;6.00;;
4810;SDS011;2419;51.276;6.472;2024-02-26T14:04:12;15.40;;;7.13;;
4810;SDS011;2419;51.276;6.472;2024-02-26T14:06:41;11.97;;;5.87;;
4810;SDS011;2419;51.276;6.472;2024-02-26T14:09:09;15.90;;;6.40;;
4810;SDS011;2419;51.276;6.472;2024-02-26T14:11:45;8.43;;;5.27;;
4810;SDS011;2419;51.276;6.472;2024-02-26T14:14:13;7.90;;;4.83;;
4810;SDS011;2419;51.276;6.472;2024-02-26T14:16:41;8.10;;;5.60;;
4810;SDS011;2419;51.276;6.472;2024-02-26T14:19:09;11.50;;;5.23;;
4810;SDS011;2419;51.276;6.472;2024-02-26T14:21:42;7.33;;;4.93;;
4810;SDS011;2419;51.276;6.472;2024-02-26T14:24:10;5.30;;;4.07;;
4810;SDS011;2419;51.276;6.472;2024-02-26T14:26:38;7.00;;;4.60;;
4810;SDS011;2419;51.276;6.472;2024-02-26T14:29:08;8.23;;;5.00;;
4810;SDS011;2419;51.276;6.472;2024-02-26T14:31:36;7.77;;;5.37;;
4810;SDS011;2419;51.276;6.472;2024-02-26T14:34:04;8.73;;;4.33;;
4810;SDS011;2419;51.276;6.472;2024-02-26T14:36:33;6.87;;;4.57;;
4810;SDS011;2419;51.276;6.472;2024-02-26T14:39:03;7.87;;;4.70;;
4810;SDS011;2419;51.276;6.472;2024-02-26T14:41:31;6.43;;;4.53;;
4810;SDS011;2419;51.276;6.472;2024-02-26T14:43:59;7.43;;;4.70;;
4810;SDS011;2419;51.276;6.472;2024-02-26T14:46:27;5.00;;;4.07;;
4810;SDS011;2419;51.276;6.472;2024-02-26T14:48:55;10.93;;;5.30;;
4810;SDS011;2419;51.276;6.472;2024-02-26T14:51:24;7.67;;;4.73;;
4810;SDS011;2419;51.276;6.472;2024-02-26T14:53:53;5.40;;;4.10;;
4810;SDS011;2419;51.276;6.472;2024-02-26T14:56:22;7.00;;;4.67;;
4810;SDS011;2419;51.276;6.472;2024-02-26T14:58:50;5.80;;;3.50;;
4810;SDS011;2419;51.276;6.472;2024-02-26T15:01:18;4.13;;;3.73;;
4810;SDS011;2419;51.276;6.472;2024-02-26T15:03:46;6.70;;;3.93;;
4810;SDS011;2419;51.276;6.472;2024-02-26T15:06:14;7.80;;;3.90;;
4810;SDS011;2419;51.276;6.472;2024-02-26T15:08:43;7.23;;;4.50;;
4810;SDS011;2419;51.276;6.472;2024-02-26T15:11:11;6.10;;;3.87;;
4810;SDS011;2419;51.276;6.472;2024-02-26T15:13:40;4.93;;;3.70;;
4810;SDS011;2419;51.276;6.472;2024-02-26T15:16:08;5.40;;;4.40;;
4810;SDS011;2419;51.276;6.472;2024-02-26T15:18:36;5.67;;;3.80;;
4810;SDS011;2419;51.276;6.472;2024-02-26T15:21:05;5.60;;;4.53;;
4810;SDS011;2419;51.276;6.472;2024-02-26T15:23:34;6.37;;;4.00;;
4810;SDS011;2419;51.276;6.472;2024-02-26T15:26:02;5.93;;;4.30;;
4810;SDS011;2419;51.276;6.472;2024-02-26T15:28:31;6.47;;;4.03;;